EG-0001 weather

Al Rahmaniyah
Beheira Governorate, Egypt

Public forecast

Using degrees Celsius for public forecast. Weather courtesy of forecast.io.

METAR (pilot weather report)

Closest report is El Nouzha Airport, 37.7 nm (69.9 km) WNW. Retrieved 2019/03/26 05:00 UTC (43 minutes ago):

HEAX 260500Z 28008KT 9999 SCT020 16/09 Q1012 NOSIG

TAF (pilot weather forecast)

Closest forecast is El Nouzha Airport, 37.7 nm (69.9 km) WNW. Retrieved 2019/03/26 00:45 UTC (5 hours ago):

TAF HEAX 252300Z 2600/2706 29008KT 9999 SCT020